sensor_id;sensor_type;location;lat;lon;timestamp;P1;durP1;ratioP1;P2;durP2;ratioP2
8050;SDS011;4068;42.158;24.732;2022-11-24T00:01:47;49.63;;;23.80;;
8050;SDS011;4068;42.158;24.732;2022-11-24T00:04:13;47.47;;;23.83;;
8050;SDS011;4068;42.158;24.732;2022-11-24T00:06:39;56.33;;;24.70;;
8050;SDS011;4068;42.158;24.732;2022-11-24T00:09:04;48.27;;;24.97;;
8050;SDS011;4068;42.158;24.732;2022-11-24T00:11:31;52.30;;;26.03;;
8050;SDS011;4068;42.158;24.732;2022-11-24T00:13:58;45.90;;;24.48;;
8050;SDS011;4068;42.158;24.732;2022-11-24T00:16:25;49.70;;;24.60;;
8050;SDS011;4068;42.158;24.732;2022-11-24T00:18:52;43.77;;;23.93;;
8050;SDS011;4068;42.158;24.732;2022-11-24T00:21:18;44.90;;;24.03;;
8050;SDS011;4068;42.158;24.732;2022-11-24T00:23:44;46.23;;;25.17;;
8050;SDS011;4068;42.158;24.732;2022-11-24T00:28:40;45.27;;;23.93;;
8050;SDS011;4068;42.158;24.732;2022-11-24T00:31:15;44.70;;;24.57;;
8050;SDS011;4068;42.158;24.732;2022-11-24T00:33:47;49.10;;;24.20;;
8050;SDS011;4068;42.158;24.732;2022-11-24T00:36:14;45.00;;;23.70;;
8050;SDS011;4068;42.158;24.732;2022-11-24T00:38:40;49.67;;;25.63;;
8050;SDS011;4068;42.158;24.732;2022-11-24T00:41:06;51.03;;;25.23;;
8050;SDS011;4068;42.158;24.732;2022-11-24T00:43:31;55.93;;;25.13;;
8050;SDS011;4068;42.158;24.732;2022-11-24T00:45:57;54.40;;;24.73;;
8050;SDS011;4068;42.158;24.732;2022-11-24T00:48:22;49.23;;;24.63;;
8050;SDS011;4068;42.158;24.732;2022-11-24T00:50:55;46.73;;;25.30;;
8050;SDS011;4068;42.158;24.732;2022-11-24T00:53:25;48.87;;;25.33;;
8050;SDS011;4068;42.158;24.732;2022-11-24T00:55:51;48.00;;;25.27;;
8050;SDS011;4068;42.158;24.732;2022-11-24T00:58:17;51.23;;;26.03;;
8050;SDS011;4068;42.158;24.732;2022-11-24T01:00:42;48.57;;;25.80;;
8050;SDS011;4068;42.158;24.732;2022-11-24T01:03:08;50.03;;;25.30;;
8050;SDS011;4068;42.158;24.732;2022-11-24T01:05:36;52.67;;;25.30;;
8050;SDS011;4068;42.158;24.732;2022-11-24T01:08:02;58.73;;;26.53;;
8050;SDS011;4068;42.158;24.732;2022-11-24T01:10:28;53.37;;;26.30;;
8050;SDS011;4068;42.158;24.732;2022-11-24T01:12:54;49.83;;;24.63;;
8050;SDS011;4068;42.158;24.732;2022-11-24T01:15:19;63.00;;;23.83;;
8050;SDS011;4068;42.158;24.732;2022-11-24T01:17:45;52.33;;;23.03;;
8050;SDS011;4068;42.158;24.732;2022-11-24T01:20:10;49.60;;;22.67;;
8050;SDS011;4068;42.158;24.732;2022-11-24T01:22:36;56.90;;;21.93;;
8050;SDS011;4068;42.158;24.732;2022-11-24T01:25:08;40.23;;;20.57;;
8050;SDS011;4068;42.158;24.732;2022-11-24T01:27:35;41.17;;;22.63;;
8050;SDS011;4068;42.158;24.732;2022-11-24T01:30:00;39.40;;;21.93;;
8050;SDS011;4068;42.158;24.732;2022-11-24T01:32:26;44.50;;;22.80;;
8050;SDS011;4068;42.158;24.732;2022-11-24T01:34:52;39.07;;;22.07;;
8050;SDS011;4068;42.158;24.732;2022-11-24T01:37:17;42.30;;;23.63;;
8050;SDS011;4068;42.158;24.732;2022-11-24T01:39:43;40.77;;;23.23;;
8050;SDS011;4068;42.158;24.732;2022-11-24T01:42:08;42.37;;;22.63;;
8050;SDS011;4068;42.158;24.732;2022-11-24T01:44:33;43.97;;;22.33;;
8050;SDS011;4068;42.158;24.732;2022-11-24T01:47:01;45.17;;;24.10;;
8050;SDS011;4068;42.158;24.732;2022-11-24T01:49:34;41.50;;;23.20;;
8050;SDS011;4068;42.158;24.732;2022-11-24T01:52:05;45.30;;;22.87;;
8050;SDS011;4068;42.158;24.732;2022-11-24T01:54:40;42.47;;;22.60;;
8050;SDS011;4068;42.158;24.732;2022-11-24T01:57:12;43.37;;;23.17;;
8050;SDS011;4068;42.158;24.732;2022-11-24T02:00:06;42.67;;;21.97;;
8050;SDS011;4068;42.158;24.732;2022-11-24T02:02:34;40.57;;;21.97;;
8050;SDS011;4068;42.158;24.732;2022-11-24T02:05:02;43.13;;;21.70;;
8050;SDS011;4068;42.158;24.732;2022-11-24T02:07:34;41.10;;;21.17;;
8050;SDS011;4068;42.158;24.732;2022-11-24T02:10:14;40.97;;;22.20;;
8050;SDS011;4068;42.158;24.732;2022-11-24T02:12:41;37.37;;;21.43;;
8050;SDS011;4068;42.158;24.732;2022-11-24T02:15:09;34.00;;;19.10;;
8050;SDS011;4068;42.158;24.732;2022-11-24T02:17:35;38.57;;;20.07;;
8050;SDS011;4068;42.158;24.732;2022-11-24T02:20:02;40.27;;;20.33;;
8050;SDS011;4068;42.158;24.732;2022-11-24T02:22:35;39.67;;;20.13;;
8050;SDS011;4068;42.158;24.732;2022-11-24T02:25:09;39.50;;;20.37;;
8050;SDS011;4068;42.158;24.732;2022-11-24T02:27:45;37.00;;;20.60;;
8050;SDS011;4068;42.158;24.732;2022-11-24T02:30:10;37.30;;;21.07;;
8050;SDS011;4068;42.158;24.732;2022-11-24T02:32:37;37.97;;;20.93;;
8050;SDS011;4068;42.158;24.732;2022-11-24T02:35:06;37.60;;;21.30;;
8050;SDS011;4068;42.158;24.732;2022-11-24T02:37:33;38.53;;;20.50;;
8050;SDS011;4068;42.158;24.732;2022-11-24T02:39:58;38.30;;;19.80;;
8050;SDS011;4068;42.158;24.732;2022-11-24T02:42:24;39.50;;;20.80;;
8050;SDS011;4068;42.158;24.732;2022-11-24T02:44:53;48.47;;;20.47;;
8050;SDS011;4068;42.158;24.732;2022-11-24T02:47:22;37.57;;;21.17;;
8050;SDS011;4068;42.158;24.732;2022-11-24T02:49:47;35.47;;;19.83;;
8050;SDS011;4068;42.158;24.732;2022-11-24T02:52:13;40.87;;;20.97;;
8050;SDS011;4068;42.158;24.732;2022-11-24T02:54:38;37.17;;;20.20;;
8050;SDS011;4068;42.158;24.732;2022-11-24T02:57:03;40.93;;;21.20;;
8050;SDS011;4068;42.158;24.732;2022-11-24T02:59:29;36.40;;;20.63;;
8050;SDS011;4068;42.158;24.732;2022-11-24T03:01:54;38.40;;;20.23;;
8050;SDS011;4068;42.158;24.732;2022-11-24T03:04:20;41.90;;;20.37;;
8050;SDS011;4068;42.158;24.732;2022-11-24T03:06:45;36.57;;;18.90;;
8050;SDS011;4068;42.158;24.732;2022-11-24T03:09:11;30.43;;;18.07;;
8050;SDS011;4068;42.158;24.732;2022-11-24T03:11:36;32.00;;;18.27;;
8050;SDS011;4068;42.158;24.732;2022-11-24T03:14:02;31.77;;;18.00;;
8050;SDS011;4068;42.158;24.732;2022-11-24T03:16:28;28.20;;;16.67;;
8050;SDS011;4068;42.158;24.732;2022-11-24T03:18:53;30.07;;;17.33;;
8050;SDS011;4068;42.158;24.732;2022-11-24T03:21:19;32.90;;;18.40;;
8050;SDS011;4068;42.158;24.732;2022-11-24T03:23:44;31.90;;;17.27;;
8050;SDS011;4068;42.158;24.732;2022-11-24T03:26:11;32.23;;;18.50;;
8050;SDS011;4068;42.158;24.732;2022-11-24T03:28:38;33.40;;;18.53;;
8050;SDS011;4068;42.158;24.732;2022-11-24T03:31:04;37.40;;;18.20;;
8050;SDS011;4068;42.158;24.732;2022-11-24T03:33:30;34.13;;;17.93;;
8050;SDS011;4068;42.158;24.732;2022-11-24T03:35:56;37.67;;;18.13;;
8050;SDS011;4068;42.158;24.732;2022-11-24T03:38:21;30.97;;;17.50;;
8050;SDS011;4068;42.158;24.732;2022-11-24T03:40:47;33.57;;;18.47;;
8050;SDS011;4068;42.158;24.732;2022-11-24T03:43:12;30.30;;;17.40;;
8050;SDS011;4068;42.158;24.732;2022-11-24T03:45:38;31.67;;;17.83;;
8050;SDS011;4068;42.158;24.732;2022-11-24T03:48:04;31.97;;;18.13;;
8050;SDS011;4068;42.158;24.732;2022-11-24T03:50:30;30.57;;;17.93;;
8050;SDS011;4068;42.158;24.732;2022-11-24T03:52:56;31.60;;;18.97;;
8050;SDS011;4068;42.158;24.732;2022-11-24T03:55:21;36.67;;;20.17;;
8050;SDS011;4068;42.158;24.732;2022-11-24T03:57:47;41.20;;;19.60;;
8050;SDS011;4068;42.158;24.732;2022-11-24T04:00:12;32.00;;;18.23;;
8050;SDS011;4068;42.158;24.732;2022-11-24T04:02:38;36.77;;;19.70;;
8050;SDS011;4068;42.158;24.732;2022-11-24T04:05:04;33.97;;;18.87;;
8050;SDS011;4068;42.158;24.732;2022-11-24T04:07:30;38.50;;;18.23;;
8050;SDS011;4068;42.158;24.732;2022-11-24T04:09:56;37.80;;;18.23;;
8050;SDS011;4068;42.158;24.732;2022-11-24T04:12:21;44.67;;;19.40;;
8050;SDS011;4068;42.158;24.732;2022-11-24T04:15:05;28.53;;;17.10;;
8050;SDS011;4068;42.158;24.732;2022-11-24T04:17:31;34.67;;;17.80;;
8050;SDS011;4068;42.158;24.732;2022-11-24T04:19:56;33.80;;;16.20;;
8050;SDS011;4068;42.158;24.732;2022-11-24T04:22:22;30.30;;;16.77;;
8050;SDS011;4068;42.158;24.732;2022-11-24T04:24:48;29.47;;;16.67;;
8050;SDS011;4068;42.158;24.732;2022-11-24T04:27:13;33.60;;;16.77;;
8050;SDS011;4068;42.158;24.732;2022-11-24T04:29:38;34.23;;;18.00;;
8050;SDS011;4068;42.158;24.732;2022-11-24T04:32:04;31.27;;;16.60;;
8050;SDS011;4068;42.158;24.732;2022-11-24T04:34:30;34.60;;;16.73;;
8050;SDS011;4068;42.158;24.732;2022-11-24T04:36:55;29.33;;;16.37;;
8050;SDS011;4068;42.158;24.732;2022-11-24T04:39:21;30.10;;;15.63;;
8050;SDS011;4068;42.158;24.732;2022-11-24T04:41:46;26.27;;;14.97;;
8050;SDS011;4068;42.158;24.732;2022-11-24T04:44:12;26.27;;;15.00;;
8050;SDS011;4068;42.158;24.732;2022-11-24T04:46:37;30.23;;;15.13;;
8050;SDS011;4068;42.158;24.732;2022-11-24T04:49:03;27.57;;;14.10;;
8050;SDS011;4068;42.158;24.732;2022-11-24T04:51:29;28.97;;;15.93;;
8050;SDS011;4068;42.158;24.732;2022-11-24T04:53:55;28.57;;;15.33;;
8050;SDS011;4068;42.158;24.732;2022-11-24T04:56:20;24.83;;;14.93;;
8050;SDS011;4068;42.158;24.732;2022-11-24T04:58:48;28.93;;;14.33;;
8050;SDS011;4068;42.158;24.732;2022-11-24T05:01:14;24.43;;;14.70;;
8050;SDS011;4068;42.158;24.732;2022-11-24T05:03:39;31.47;;;15.53;;
8050;SDS011;4068;42.158;24.732;2022-11-24T05:06:05;31.27;;;14.77;;
8050;SDS011;4068;42.158;24.732;2022-11-24T05:08:32;29.63;;;15.17;;
8050;SDS011;4068;42.158;24.732;2022-11-24T05:11:02;28.00;;;15.07;;
8050;SDS011;4068;42.158;24.732;2022-11-24T05:13:29;25.73;;;14.33;;
8050;SDS011;4068;42.158;24.732;2022-11-24T05:15:54;31.33;;;14.90;;
8050;SDS011;4068;42.158;24.732;2022-11-24T05:18:20;30.20;;;14.93;;
8050;SDS011;4068;42.158;24.732;2022-11-24T05:20:46;30.43;;;15.27;;
8050;SDS011;4068;42.158;24.732;2022-11-24T05:23:13;39.90;;;18.57;;
8050;SDS011;4068;42.158;24.732;2022-11-24T05:25:39;32.27;;;14.80;;
8050;SDS011;4068;42.158;24.732;2022-11-24T05:28:06;36.27;;;14.63;;
8050;SDS011;4068;42.158;24.732;2022-11-24T05:30:38;33.97;;;16.20;;
8050;SDS011;4068;42.158;24.732;2022-11-24T05:33:07;28.87;;;14.03;;
8050;SDS011;4068;42.158;24.732;2022-11-24T05:35:36;29.57;;;13.47;;
8050;SDS011;4068;42.158;24.732;2022-11-24T05:38:02;23.67;;;13.80;;
8050;SDS011;4068;42.158;24.732;2022-11-24T05:40:29;24.70;;;13.10;;
8050;SDS011;4068;42.158;24.732;2022-11-24T05:42:55;24.60;;;13.20;;
8050;SDS011;4068;42.158;24.732;2022-11-24T05:45:21;25.53;;;13.90;;
8050;SDS011;4068;42.158;24.732;2022-11-24T05:47:47;29.07;;;14.17;;
8050;SDS011;4068;42.158;24.732;2022-11-24T05:50:15;28.70;;;14.77;;
8050;SDS011;4068;42.158;24.732;2022-11-24T05:52:42;27.50;;;15.70;;
8050;SDS011;4068;42.158;24.732;2022-11-24T05:55:08;34.80;;;15.30;;
8050;SDS011;4068;42.158;24.732;2022-11-24T05:57:35;41.47;;;16.80;;
8050;SDS011;4068;42.158;24.732;2022-11-24T06:00:00;28.50;;;14.00;;
8050;SDS011;4068;42.158;24.732;2022-11-24T06:02:28;29.03;;;14.37;;
8050;SDS011;4068;42.158;24.732;2022-11-24T06:04:53;27.97;;;13.57;;
8050;SDS011;4068;42.158;24.732;2022-11-24T06:07:18;32.07;;;14.03;;
8050;SDS011;4068;42.158;24.732;2022-11-24T06:09:44;30.27;;;13.93;;
8050;SDS011;4068;42.158;24.732;2022-11-24T06:12:10;29.23;;;14.97;;
8050;SDS011;4068;42.158;24.732;2022-11-24T06:14:36;23.80;;;13.87;;
8050;SDS011;4068;42.158;24.732;2022-11-24T06:17:02;29.23;;;13.20;;
8050;SDS011;4068;42.158;24.732;2022-11-24T06:19:29;20.13;;;11.67;;
8050;SDS011;4068;42.158;24.732;2022-11-24T06:21:55;20.57;;;13.03;;
8050;SDS011;4068;42.158;24.732;2022-11-24T06:24:20;21.97;;;13.17;;
8050;SDS011;4068;42.158;24.732;2022-11-24T06:26:45;27.13;;;12.13;;
8050;SDS011;4068;42.158;24.732;2022-11-24T06:29:11;19.60;;;11.00;;
8050;SDS011;4068;42.158;24.732;2022-11-24T06:31:36;21.77;;;11.80;;
8050;SDS011;4068;42.158;24.732;2022-11-24T06:34:04;21.57;;;11.50;;
8050;SDS011;4068;42.158;24.732;2022-11-24T06:36:31;17.03;;;10.77;;
8050;SDS011;4068;42.158;24.732;2022-11-24T06:38:59;24.60;;;11.70;;
8050;SDS011;4068;42.158;24.732;2022-11-24T06:41:26;27.43;;;10.77;;
8050;SDS011;4068;42.158;24.732;2022-11-24T06:43:51;28.60;;;11.35;;
8050;SDS011;4068;42.158;24.732;2022-11-24T06:46:17;21.20;;;12.00;;
8050;SDS011;4068;42.158;24.732;2022-11-24T06:48:42;17.93;;;9.80;;
8050;SDS011;4068;42.158;24.732;2022-11-24T06:51:09;16.80;;;9.68;;
8050;SDS011;4068;42.158;24.732;2022-11-24T06:53:39;21.88;;;9.45;;
8050;SDS011;4068;42.158;24.732;2022-11-24T06:56:06;12.25;;;8.82;;
8050;SDS011;4068;42.158;24.732;2022-11-24T06:58:40;22.35;;;10.75;;
8050;SDS011;4068;42.158;24.732;2022-11-24T07:01:06;14.75;;;9.55;;
8050;SDS011;4068;42.158;24.732;2022-11-24T07:03:32;15.70;;;8.40;;
8050;SDS011;4068;42.158;24.732;2022-11-24T07:05:58;11.63;;;7.60;;
8050;SDS011;4068;42.158;24.732;2022-11-24T07:08:24;12.00;;;8.35;;
8050;SDS011;4068;42.158;24.732;2022-11-24T07:10:50;16.33;;;7.97;;
8050;SDS011;4068;42.158;24.732;2022-11-24T07:13:19;11.15;;;7.57;;
8050;SDS011;4068;42.158;24.732;2022-11-24T07:15:45;12.02;;;7.80;;
8050;SDS011;4068;42.158;24.732;2022-11-24T07:18:11;13.88;;;7.88;;
8050;SDS011;4068;42.158;24.732;2022-11-24T07:20:36;14.90;;;7.40;;
8050;SDS011;4068;42.158;24.732;2022-11-24T07:23:02;19.02;;;8.55;;
8050;SDS011;4068;42.158;24.732;2022-11-24T07:25:27;15.73;;;8.27;;
8050;SDS011;4068;42.158;24.732;2022-11-24T07:27:59;17.98;;;7.72;;
8050;SDS011;4068;42.158;24.732;2022-11-24T07:30:25;10.30;;;7.38;;
8050;SDS011;4068;42.158;24.732;2022-11-24T07:32:51;13.10;;;8.07;;
8050;SDS011;4068;42.158;24.732;2022-11-24T07:35:16;15.88;;;8.02;;
8050;SDS011;4068;42.158;24.732;2022-11-24T07:37:42;16.20;;;9.00;;
8050;SDS011;4068;42.158;24.732;2022-11-24T07:40:08;15.55;;;8.70;;
8050;SDS011;4068;42.158;24.732;2022-11-24T07:42:34;17.00;;;10.00;;
8050;SDS011;4068;42.158;24.732;2022-11-24T07:45:00;23.20;;;11.02;;
8050;SDS011;4068;42.158;24.732;2022-11-24T07:47:25;24.13;;;10.68;;
8050;SDS011;4068;42.158;24.732;2022-11-24T07:49:51;20.95;;;10.48;;
8050;SDS011;4068;42.158;24.732;2022-11-24T07:52:16;19.23;;;10.80;;
8050;SDS011;4068;42.158;24.732;2022-11-24T07:54:41;12.23;;;8.80;;
8050;SDS011;4068;42.158;24.732;2022-11-24T07:57:07;13.73;;;9.13;;
8050;SDS011;4068;42.158;24.732;2022-11-24T07:59:32;14.75;;;9.05;;
8050;SDS011;4068;42.158;24.732;2022-11-24T08:01:58;15.05;;;8.43;;
8050;SDS011;4068;42.158;24.732;2022-11-24T08:04:23;14.80;;;8.77;;
8050;SDS011;4068;42.158;24.732;2022-11-24T08:06:48;13.90;;;8.48;;
8050;SDS011;4068;42.158;24.732;2022-11-24T08:09:14;16.98;;;9.35;;
8050;SDS011;4068;42.158;24.732;2022-11-24T08:11:40;11.63;;;7.90;;
8050;SDS011;4068;42.158;24.732;2022-11-24T08:14:05;16.23;;;8.70;;
8050;SDS011;4068;42.158;24.732;2022-11-24T08:16:31;6.57;;;5.85;;
8050;SDS011;4068;42.158;24.732;2022-11-24T08:18:56;11.13;;;6.82;;
8050;SDS011;4068;42.158;24.732;2022-11-24T08:21:22;8.63;;;6.25;;
8050;SDS011;4068;42.158;24.732;2022-11-24T08:23:48;12.00;;;6.43;;
8050;SDS011;4068;42.158;24.732;2022-11-24T08:26:14;10.40;;;6.43;;
8050;SDS011;4068;42.158;24.732;2022-11-24T08:28:42;26.58;;;11.05;;
8050;SDS011;4068;42.158;24.732;2022-11-24T08:31:10;18.80;;;10.10;;
8050;SDS011;4068;42.158;24.732;2022-11-24T08:33:37;11.00;;;6.95;;
8050;SDS011;4068;42.158;24.732;2022-11-24T08:36:04;7.65;;;5.50;;
8050;SDS011;4068;42.158;24.732;2022-11-24T08:38:31;9.77;;;5.63;;
8050;SDS011;4068;42.158;24.732;2022-11-24T08:41:03;8.30;;;5.95;;
8050;SDS011;4068;42.158;24.732;2022-11-24T08:43:30;8.88;;;5.45;;
8050;SDS011;4068;42.158;24.732;2022-11-24T08:46:10;10.93;;;5.45;;
8050;SDS011;4068;42.158;24.732;2022-11-24T08:48:37;7.13;;;4.80;;
8050;SDS011;4068;42.158;24.732;2022-11-24T08:51:06;6.82;;;5.30;;
8050;SDS011;4068;42.158;24.732;2022-11-24T08:53:37;10.20;;;5.75;;
8050;SDS011;4068;42.158;24.732;2022-11-24T08:56:02;12.55;;;6.15;;
8050;SDS011;4068;42.158;24.732;2022-11-24T08:58:29;9.90;;;5.30;;
8050;SDS011;4068;42.158;24.732;2022-11-24T09:01:02;11.85;;;5.05;;
8050;SDS011;4068;42.158;24.732;2022-11-24T09:03:31;8.93;;;5.13;;
8050;SDS011;4068;42.158;24.732;2022-11-24T09:05:57;8.88;;;5.60;;
8050;SDS011;4068;42.158;24.732;2022-11-24T09:08:22;6.78;;;5.32;;
8050;SDS011;4068;42.158;24.732;2022-11-24T09:10:47;6.55;;;5.35;;
8050;SDS011;4068;42.158;24.732;2022-11-24T09:13:13;10.77;;;5.43;;
8050;SDS011;4068;42.158;24.732;2022-11-24T09:15:38;9.55;;;5.40;;
8050;SDS011;4068;42.158;24.732;2022-11-24T09:18:04;8.35;;;5.60;;
8050;SDS011;4068;42.158;24.732;2022-11-24T09:20:29;10.20;;;5.35;;
8050;SDS011;4068;42.158;24.732;2022-11-24T09:22:55;16.30;;;5.45;;
8050;SDS011;4068;42.158;24.732;2022-11-24T09:25:20;10.75;;;5.43;;
8050;SDS011;4068;42.158;24.732;2022-11-24T09:27:47;8.77;;;5.35;;
8050;SDS011;4068;42.158;24.732;2022-11-24T09:30:14;8.18;;;4.80;;
8050;SDS011;4068;42.158;24.732;2022-11-24T09:32:39;6.63;;;5.05;;
8050;SDS011;4068;42.158;24.732;2022-11-24T09:35:05;10.88;;;5.20;;
8050;SDS011;4068;42.158;24.732;2022-11-24T09:37:31;10.82;;;5.45;;
8050;SDS011;4068;42.158;24.732;2022-11-24T09:39:57;7.85;;;4.72;;
8050;SDS011;4068;42.158;24.732;2022-11-24T09:50:21;8.23;;;4.75;;
8050;SDS011;4068;42.158;24.732;2022-11-24T09:52:50;10.65;;;4.40;;
8050;SDS011;4068;42.158;24.732;2022-11-24T09:57:51;6.90;;;4.22;;
8050;SDS011;4068;42.158;24.732;2022-11-24T10:00:25;3.50;;;3.20;;
8050;SDS011;4068;42.158;24.732;2022-11-24T10:02:51;5.40;;;3.70;;
8050;SDS011;4068;42.158;24.732;2022-11-24T10:05:17;7.22;;;3.60;;
8050;SDS011;4068;42.158;24.732;2022-11-24T10:10:58;6.43;;;3.97;;
8050;SDS011;4068;42.158;24.732;2022-11-24T10:27:17;8.90;;;3.35;;
8050;SDS011;4068;42.158;24.732;2022-11-24T10:29:50;5.05;;;3.22;;
8050;SDS011;4068;42.158;24.732;2022-11-24T10:32:17;6.50;;;3.17;;
8050;SDS011;4068;42.158;24.732;2022-11-24T10:34:47;4.25;;;2.80;;
8050;SDS011;4068;42.158;24.732;2022-11-24T10:43:02;3.00;;;2.53;;
8050;SDS011;4068;42.158;24.732;2022-11-24T10:45:30;3.28;;;2.10;;
8050;SDS011;4068;42.158;24.732;2022-11-24T10:47:56;5.03;;;3.13;;
8050;SDS011;4068;42.158;24.732;2022-11-24T10:50:26;6.75;;;3.45;;
8050;SDS011;4068;42.158;24.732;2022-11-24T10:58:21;5.75;;;3.20;;
8050;SDS011;4068;42.158;24.732;2022-11-24T11:00:46;3.33;;;2.50;;
8050;SDS011;4068;42.158;24.732;2022-11-24T11:03:19;3.17;;;2.25;;
8050;SDS011;4068;42.158;24.732;2022-11-24T11:05:50;4.65;;;2.58;;
8050;SDS011;4068;42.158;24.732;2022-11-24T11:08:33;5.80;;;2.47;;
8050;SDS011;4068;42.158;24.732;2022-11-24T11:11:12;5.45;;;3.00;;
8050;SDS011;4068;42.158;24.732;2022-11-24T11:14:00;7.10;;;3.67;;
8050;SDS011;4068;42.158;24.732;2022-11-24T11:16:35;2.70;;;2.50;;
8050;SDS011;4068;42.158;24.732;2022-11-24T11:19:03;4.15;;;2.90;;
8050;SDS011;4068;42.158;24.732;2022-11-24T11:23:58;8.68;;;3.50;;
8050;SDS011;4068;42.158;24.732;2022-11-24T11:31:35;3.92;;;2.88;;
8050;SDS011;4068;42.158;24.732;2022-11-24T11:36:34;4.45;;;2.92;;
8050;SDS011;4068;42.158;24.732;2022-11-24T11:39:03;2.35;;;2.15;;
8050;SDS011;4068;42.158;24.732;2022-11-24T11:41:31;3.20;;;2.60;;
8050;SDS011;4068;42.158;24.732;2022-11-24T11:44:13;4.53;;;2.33;;
8050;SDS011;4068;42.158;24.732;2022-11-24T11:46:41;2.55;;;2.35;;
8050;SDS011;4068;42.158;24.732;2022-11-24T11:49:09;4.95;;;2.63;;
8050;SDS011;4068;42.158;24.732;2022-11-24T11:57:35;6.10;;;2.80;;
8050;SDS011;4068;42.158;24.732;2022-11-24T12:00:14;3.90;;;2.40;;
8050;SDS011;4068;42.158;24.732;2022-11-24T12:05:46;4.57;;;3.40;;
8050;SDS011;4068;42.158;24.732;2022-11-24T12:10:57;4.85;;;3.42;;
8050;SDS011;4068;42.158;24.732;2022-11-24T12:13:38;4.15;;;3.40;;
8050;SDS011;4068;42.158;24.732;2022-11-24T12:16:18;3.90;;;3.50;;
8050;SDS011;4068;42.158;24.732;2022-11-24T12:21:51;5.32;;;3.33;;
8050;SDS011;4068;42.158;24.732;2022-11-24T12:30:04;5.32;;;4.28;;
8050;SDS011;4068;42.158;24.732;2022-11-24T12:35:45;7.25;;;5.28;;
8050;SDS011;4068;42.158;24.732;2022-11-24T12:38:39;8.05;;;5.45;;
8050;SDS011;4068;42.158;24.732;2022-11-24T12:43:46;8.55;;;6.00;;
8050;SDS011;4068;42.158;24.732;2022-11-24T12:49:12;9.43;;;5.68;;
8050;SDS011;4068;42.158;24.732;2022-11-24T12:51:53;8.15;;;5.80;;
8050;SDS011;4068;42.158;24.732;2022-11-24T12:54:25;12.70;;;4.88;;
8050;SDS011;4068;42.158;24.732;2022-11-24T13:02:33;7.95;;;5.05;;
8050;SDS011;4068;42.158;24.732;2022-11-24T13:05:12;11.90;;;5.60;;
8050;SDS011;4068;42.158;24.732;2022-11-24T13:07:46;9.88;;;4.82;;
8050;SDS011;4068;42.158;24.732;2022-11-24T13:15:30;7.88;;;5.07;;
8050;SDS011;4068;42.158;24.732;2022-11-24T13:17:57;9.32;;;5.10;;
8050;SDS011;4068;42.158;24.732;2022-11-24T13:20:33;7.28;;;4.82;;
8050;SDS011;4068;42.158;24.732;2022-11-24T13:23:03;9.63;;;4.80;;
8050;SDS011;4068;42.158;24.732;2022-11-24T13:25:29;9.55;;;4.57;;
8050;SDS011;4068;42.158;24.732;2022-11-24T13:28:01;5.00;;;4.25;;
8050;SDS011;4068;42.158;24.732;2022-11-24T13:35:37;6.00;;;4.25;;
8050;SDS011;4068;42.158;24.732;2022-11-24T13:41:07;7.97;;;4.53;;
8050;SDS011;4068;42.158;24.732;2022-11-24T13:43:33;5.13;;;4.53;;
8050;SDS011;4068;42.158;24.732;2022-11-24T13:45:59;5.68;;;4.30;;
8050;SDS011;4068;42.158;24.732;2022-11-24T13:58:39;5.38;;;4.18;;
8050;SDS011;4068;42.158;24.732;2022-11-24T14:03:37;6.05;;;3.53;;
8050;SDS011;4068;42.158;24.732;2022-11-24T14:06:05;5.43;;;3.90;;
8050;SDS011;4068;42.158;24.732;2022-11-24T14:08:44;5.55;;;3.53;;
8050;SDS011;4068;42.158;24.732;2022-11-24T14:11:12;15.80;;;4.25;;
8050;SDS011;4068;42.158;24.732;2022-11-24T14:13:39;4.13;;;3.40;;
8050;SDS011;4068;42.158;24.732;2022-11-24T14:18:33;5.07;;;4.15;;
8050;SDS011;4068;42.158;24.732;2022-11-24T14:23:51;5.03;;;3.38;;
8050;SDS011;4068;42.158;24.732;2022-11-24T14:26:20;5.47;;;3.50;;
8050;SDS011;4068;42.158;24.732;2022-11-24T14:28:48;4.80;;;3.53;;
8050;SDS011;4068;42.158;24.732;2022-11-24T14:33:45;6.30;;;3.72;;
8050;SDS011;4068;42.158;24.732;2022-11-24T14:36:14;5.43;;;3.70;;
8050;SDS011;4068;42.158;24.732;2022-11-24T14:38:41;3.83;;;3.40;;
8050;SDS011;4068;42.158;24.732;2022-11-24T14:41:22;6.75;;;3.88;;
8050;SDS011;4068;42.158;24.732;2022-11-24T14:46:32;4.50;;;3.88;;
8050;SDS011;4068;42.158;24.732;2022-11-24T14:49:00;4.25;;;3.85;;
8050;SDS011;4068;42.158;24.732;2022-11-24T14:51:30;5.65;;;3.88;;
8050;SDS011;4068;42.158;24.732;2022-11-24T14:54:04;5.60;;;4.07;;
8050;SDS011;4068;42.158;24.732;2022-11-24T14:56:38;4.35;;;3.70;;
8050;SDS011;4068;42.158;24.732;2022-11-24T14:59:26;3.90;;;3.60;;
8050;SDS011;4068;42.158;24.732;2022-11-24T15:01:51;6.22;;;4.57;;
8050;SDS011;4068;42.158;24.732;2022-11-24T15:04:20;5.28;;;4.25;;
8050;SDS011;4068;42.158;24.732;2022-11-24T15:07:01;5.72;;;4.60;;
8050;SDS011;4068;42.158;24.732;2022-11-24T15:09:54;5.57;;;4.30;;
8050;SDS011;4068;42.158;24.732;2022-11-24T15:12:38;4.43;;;4.03;;
8050;SDS011;4068;42.158;24.732;2022-11-24T15:15:25;6.57;;;5.45;;
8050;SDS011;4068;42.158;24.732;2022-11-24T15:17:58;5.72;;;4.63;;
8050;SDS011;4068;42.158;24.732;2022-11-24T15:20:44;5.70;;;4.57;;
8050;SDS011;4068;42.158;24.732;2022-11-24T15:25:44;4.90;;;4.20;;
8050;SDS011;4068;42.158;24.732;2022-11-24T15:28:10;9.60;;;4.80;;
8050;SDS011;4068;42.158;24.732;2022-11-24T15:30:36;8.55;;;5.05;;
8050;SDS011;4068;42.158;24.732;2022-11-24T15:33:02;8.02;;;4.95;;
8050;SDS011;4068;42.158;24.732;2022-11-24T15:35:44;7.72;;;4.80;;
8050;SDS011;4068;42.158;24.732;2022-11-24T15:38:10;6.95;;;4.63;;
8050;SDS011;4068;42.158;24.732;2022-11-24T15:40:39;9.63;;;5.25;;
8050;SDS011;4068;42.158;24.732;2022-11-24T15:43:18;6.85;;;5.63;;
8050;SDS011;4068;42.158;24.732;2022-11-24T15:45:43;7.85;;;4.65;;
8050;SDS011;4068;42.158;24.732;2022-11-24T15:48:09;6.13;;;4.55;;
8050;SDS011;4068;42.158;24.732;2022-11-24T15:50:34;7.72;;;4.53;;
8050;SDS011;4068;42.158;24.732;2022-11-24T15:53:23;7.15;;;5.05;;
8050;SDS011;4068;42.158;24.732;2022-11-24T15:55:53;6.25;;;4.68;;
8050;SDS011;4068;42.158;24.732;2022-11-24T15:58:23;5.47;;;4.95;;
8050;SDS011;4068;42.158;24.732;2022-11-24T16:00:48;6.93;;;4.72;;
8050;SDS011;4068;42.158;24.732;2022-11-24T16:03:15;8.75;;;4.40;;
8050;SDS011;4068;42.158;24.732;2022-11-24T16:05:40;9.50;;;5.88;;
8050;SDS011;4068;42.158;24.732;2022-11-24T16:08:13;7.25;;;4.55;;
8050;SDS011;4068;42.158;24.732;2022-11-24T16:10:39;7.10;;;4.88;;
8050;SDS011;4068;42.158;24.732;2022-11-24T16:13:06;5.28;;;4.78;;
8050;SDS011;4068;42.158;24.732;2022-11-24T16:15:32;7.78;;;4.82;;
8050;SDS011;4068;42.158;24.732;2022-11-24T16:17:57;5.30;;;4.25;;
8050;SDS011;4068;42.158;24.732;2022-11-24T16:20:23;7.38;;;4.93;;
8050;SDS011;4068;42.158;24.732;2022-11-24T16:22:48;5.68;;;4.85;;
8050;SDS011;4068;42.158;24.732;2022-11-24T16:25:14;9.00;;;5.13;;
8050;SDS011;4068;42.158;24.732;2022-11-24T16:27:40;7.28;;;4.70;;
8050;SDS011;4068;42.158;24.732;2022-11-24T16:30:06;5.82;;;4.35;;
8050;SDS011;4068;42.158;24.732;2022-11-24T16:32:34;6.45;;;4.53;;
8050;SDS011;4068;42.158;24.732;2022-11-24T16:35:00;6.10;;;5.13;;
8050;SDS011;4068;42.158;24.732;2022-11-24T16:37:25;11.68;;;5.60;;
8050;SDS011;4068;42.158;24.732;2022-11-24T16:39:51;7.07;;;4.75;;
8050;SDS011;4068;42.158;24.732;2022-11-24T16:42:16;6.82;;;4.32;;
8050;SDS011;4068;42.158;24.732;2022-11-24T16:44:42;9.30;;;4.35;;
8050;SDS011;4068;42.158;24.732;2022-11-24T16:47:07;6.00;;;4.72;;
8050;SDS011;4068;42.158;24.732;2022-11-24T16:49:33;8.70;;;5.32;;
8050;SDS011;4068;42.158;24.732;2022-11-24T16:51:58;7.38;;;4.47;;
8050;SDS011;4068;42.158;24.732;2022-11-24T16:54:24;7.97;;;5.50;;
8050;SDS011;4068;42.158;24.732;2022-11-24T16:56:49;5.20;;;4.70;;